sensor_id;sensor_type;location;lat;lon;timestamp;pressure;altitude;pressure_sealevel;temperature;humidity
24858;BME280;12935;50.782;6.074;2023-01-28T00:00:40;100570.03;;;3.42;100.00
24858;BME280;12935;50.782;6.074;2023-01-28T00:03:08;100573.88;;;3.24;100.00
24858;BME280;12935;50.782;6.074;2023-01-28T00:05:34;100572.41;;;3.18;100.00
24858;BME280;12935;50.782;6.074;2023-01-28T00:08:03;100567.97;;;3.31;100.00
24858;BME280;12935;50.782;6.074;2023-01-28T00:10:31;100567.19;;;3.39;100.00
24858;BME280;12935;50.782;6.074;2023-01-28T00:12:57;100564.19;;;3.14;100.00
24858;BME280;12935;50.782;6.074;2023-01-28T00:15:25;100564.16;;;2.89;100.00
24858;BME280;12935;50.782;6.074;2023-01-28T00:17:51;100577.47;;;2.76;100.00
24858;BME280;12935;50.782;6.074;2023-01-28T00:20:23;100576.69;;;3.02;100.00
24858;BME280;12935;50.782;6.074;2023-01-28T00:22:48;100570.69;;;3.13;100.00
24858;BME280;12935;50.782;6.074;2023-01-28T00:25:15;100575.28;;;3.22;100.00
24858;BME280;12935;50.782;6.074;2023-01-28T00:27:41;100563.19;;;3.02;100.00
24858;BME280;12935;50.782;6.074;2023-01-28T00:30:07;100567.03;;;3.18;100.00
24858;BME280;12935;50.782;6.074;2023-01-28T00:32:33;100570.53;;;3.27;100.00
24858;BME280;12935;50.782;6.074;2023-01-28T00:34:58;100571.00;;;3.38;100.00
24858;BME280;12935;50.782;6.074;2023-01-28T00:37:24;100553.22;;;3.28;100.00
24858;BME280;12935;50.782;6.074;2023-01-28T00:39:50;100559.72;;;3.36;100.00
24858;BME280;12935;50.782;6.074;2023-01-28T00:42:19;100558.94;;;3.44;100.00
24858;BME280;12935;50.782;6.074;2023-01-28T00:44:44;100563.84;;;3.42;100.00
24858;BME280;12935;50.782;6.074;2023-01-28T00:47:10;100560.66;;;3.48;100.00
24858;BME280;12935;50.782;6.074;2023-01-28T00:49:36;100562.09;;;3.46;100.00
24858;BME280;12935;50.782;6.074;2023-01-28T00:52:01;100559.06;;;3.04;100.00
24858;BME280;12935;50.782;6.074;2023-01-28T00:54:28;100561.47;;;3.14;100.00
24858;BME280;12935;50.782;6.074;2023-01-28T00:56:57;100568.13;;;3.17;100.00
24858;BME280;12935;50.782;6.074;2023-01-28T00:59:22;100563.03;;;3.15;100.00
24858;BME280;12935;50.782;6.074;2023-01-28T01:01:48;100564.00;;;2.94;100.00
24858;BME280;12935;50.782;6.074;2023-01-28T01:04:18;100558.91;;;2.75;100.00
24858;BME280;12935;50.782;6.074;2023-01-28T01:06:50;100554.94;;;2.90;100.00
24858;BME280;12935;50.782;6.074;2023-01-28T01:09:16;100553.34;;;2.89;100.00
24858;BME280;12935;50.782;6.074;2023-01-28T01:11:42;100560.50;;;2.93;100.00
24858;BME280;12935;50.782;6.074;2023-01-28T01:14:09;100562.56;;;3.05;100.00
24858;BME280;12935;50.782;6.074;2023-01-28T01:16:35;100560.81;;;3.17;100.00
24858;BME280;12935;50.782;6.074;2023-01-28T01:19:03;100563.53;;;3.26;100.00
24858;BME280;12935;50.782;6.074;2023-01-28T01:21:29;100564.66;;;3.25;100.00
24858;BME280;12935;50.782;6.074;2023-01-28T01:23:55;100566.88;;;3.23;100.00
24858;BME280;12935;50.782;6.074;2023-01-28T01:26:22;100564.81;;;3.11;100.00
24858;BME280;12935;50.782;6.074;2023-01-28T01:28:49;100572.13;;;3.11;100.00
24858;BME280;12935;50.782;6.074;2023-01-28T01:31:17;100568.59;;;3.02;100.00
24858;BME280;12935;50.782;6.074;2023-01-28T01:33:48;100569.09;;;3.04;100.00
24858;BME280;12935;50.782;6.074;2023-01-28T01:36:15;100568.59;;;3.02;100.00
24858;BME280;12935;50.782;6.074;2023-01-28T01:38:41;100572.41;;;3.01;100.00
24858;BME280;12935;50.782;6.074;2023-01-28T01:41:08;100566.19;;;2.74;100.00
24858;BME280;12935;50.782;6.074;2023-01-28T01:43:50;100565.88;;;2.76;100.00
24858;BME280;12935;50.782;6.074;2023-01-28T01:46:21;100577.56;;;2.45;100.00
24858;BME280;12935;50.782;6.074;2023-01-28T01:48:47;100572.28;;;2.32;100.00
24858;BME280;12935;50.782;6.074;2023-01-28T01:51:18;100578.53;;;2.50;100.00
24858;BME280;12935;50.782;6.074;2023-01-28T01:53:48;100565.41;;;2.65;100.00
24858;BME280;12935;50.782;6.074;2023-01-28T01:56:18;100562.56;;;2.88;100.00
24858;BME280;12935;50.782;6.074;2023-01-28T01:58:49;100570.38;;;3.06;100.00
24858;BME280;12935;50.782;6.074;2023-01-28T02:01:20;100570.81;;;2.91;100.00
24858;BME280;12935;50.782;6.074;2023-01-28T02:04:26;100575.72;;;2.72;100.00
24858;BME280;12935;50.782;6.074;2023-01-28T02:06:54;100571.59;;;2.74;100.00
24858;BME280;12935;50.782;6.074;2023-01-28T02:09:30;100570.00;;;2.73;100.00
24858;BME280;12935;50.782;6.074;2023-01-28T02:12:00;100575.75;;;2.89;100.00
24858;BME280;12935;50.782;6.074;2023-01-28T02:14:33;100580.81;;;2.99;100.00
24858;BME280;12935;50.782;6.074;2023-01-28T02:17:01;100584.94;;;2.88;100.00
24858;BME280;12935;50.782;6.074;2023-01-28T02:19:42;100573.03;;;2.80;100.00
24858;BME280;12935;50.782;6.074;2023-01-28T02:25:33;100567.78;;;2.75;100.00
24858;BME280;12935;50.782;6.074;2023-01-28T02:30:41;100574.78;;;2.85;100.00
24858;BME280;12935;50.782;6.074;2023-01-28T02:33:14;100582.22;;;2.71;100.00
24858;BME280;12935;50.782;6.074;2023-01-28T02:35:47;100590.00;;;2.64;100.00
24858;BME280;12935;50.782;6.074;2023-01-28T02:38:29;100581.03;;;2.46;100.00
24858;BME280;12935;50.782;6.074;2023-01-28T02:41:04;100579.94;;;2.47;100.00
24858;BME280;12935;50.782;6.074;2023-01-28T02:43:53;100582.94;;;2.45;100.00
24858;BME280;12935;50.782;6.074;2023-01-28T02:49:13;100583.00;;;2.15;100.00
24858;BME280;12935;50.782;6.074;2023-01-28T02:52:31;100581.34;;;2.05;100.00
24858;BME280;12935;50.782;6.074;2023-01-28T02:55:44;100584.38;;;2.03;100.00
24858;BME280;12935;50.782;6.074;2023-01-28T03:00:29;100591.78;;;2.29;100.00
24858;BME280;12935;50.782;6.074;2023-01-28T03:05:44;100601.94;;;2.32;100.00
24858;BME280;12935;50.782;6.074;2023-01-28T03:08:31;100589.13;;;2.46;100.00
24858;BME280;12935;50.782;6.074;2023-01-28T03:11:16;100595.03;;;2.57;100.00
24858;BME280;12935;50.782;6.074;2023-01-28T03:14:01;100594.41;;;2.68;100.00
24858;BME280;12935;50.782;6.074;2023-01-28T03:16:45;100599.19;;;2.63;100.00
24858;BME280;12935;50.782;6.074;2023-01-28T03:19:29;100607.34;;;2.32;100.00
24858;BME280;12935;50.782;6.074;2023-01-28T03:22:14;100613.63;;;2.19;100.00
24858;BME280;12935;50.782;6.074;2023-01-28T03:25:01;100615.03;;;2.16;100.00
24858;BME280;12935;50.782;6.074;2023-01-28T03:27:59;100617.84;;;2.11;100.00
24858;BME280;12935;50.782;6.074;2023-01-28T03:31:00;100609.13;;;2.45;100.00
24858;BME280;12935;50.782;6.074;2023-01-28T03:33:46;100609.38;;;2.74;100.00
24858;BME280;12935;50.782;6.074;2023-01-28T03:36:31;100616.53;;;2.88;100.00
24858;BME280;12935;50.782;6.074;2023-01-28T03:39:17;100617.38;;;2.97;100.00
24858;BME280;12935;50.782;6.074;2023-01-28T03:41:58;100618.47;;;3.04;100.00
24858;BME280;12935;50.782;6.074;2023-01-28T03:44:24;100609.75;;;2.99;100.00
24858;BME280;12935;50.782;6.074;2023-01-28T03:47:10;100613.34;;;2.86;100.00
24858;BME280;12935;50.782;6.074;2023-01-28T03:49:46;100622.63;;;2.54;100.00
24858;BME280;12935;50.782;6.074;2023-01-28T03:52:17;100624.09;;;2.68;100.00
24858;BME280;12935;50.782;6.074;2023-01-28T03:54:44;100614.94;;;2.78;100.00
24858;BME280;12935;50.782;6.074;2023-01-28T03:57:14;100618.22;;;2.58;100.00
24858;BME280;12935;50.782;6.074;2023-01-28T03:59:39;100622.78;;;2.49;100.00
24858;BME280;12935;50.782;6.074;2023-01-28T04:02:06;100618.06;;;2.63;100.00
24858;BME280;12935;50.782;6.074;2023-01-28T04:04:32;100614.75;;;2.66;100.00
24858;BME280;12935;50.782;6.074;2023-01-28T04:06:58;100627.22;;;2.53;100.00
24858;BME280;12935;50.782;6.074;2023-01-28T04:09:24;100630.28;;;2.60;100.00
24858;BME280;12935;50.782;6.074;2023-01-28T04:11:50;100626.34;;;2.66;100.00
24858;BME280;12935;50.782;6.074;2023-01-28T04:14:19;100630.63;;;2.28;100.00
24858;BME280;12935;50.782;6.074;2023-01-28T04:16:45;100632.91;;;2.43;100.00
24858;BME280;12935;50.782;6.074;2023-01-28T04:19:11;100628.03;;;2.54;100.00
24858;BME280;12935;50.782;6.074;2023-01-28T04:21:38;100632.97;;;2.52;100.00
24858;BME280;12935;50.782;6.074;2023-01-28T04:24:04;100631.88;;;2.61;100.00
24858;BME280;12935;50.782;6.074;2023-01-28T04:26:30;100626.28;;;2.49;100.00
24858;BME280;12935;50.782;6.074;2023-01-28T04:28:55;100641.78;;;2.35;100.00
24858;BME280;12935;50.782;6.074;2023-01-28T04:31:21;100638.00;;;2.44;100.00
24858;BME280;12935;50.782;6.074;2023-01-28T04:33:48;100635.56;;;2.65;100.00
24858;BME280;12935;50.782;6.074;2023-01-28T04:36:14;100631.88;;;2.61;100.00
24858;BME280;12935;50.782;6.074;2023-01-28T04:38:40;100641.56;;;2.71;100.00
24858;BME280;12935;50.782;6.074;2023-01-28T04:41:06;100640.81;;;2.79;100.00
24858;BME280;12935;50.782;6.074;2023-01-28T04:43:32;100642.25;;;2.85;100.00
24858;BME280;12935;50.782;6.074;2023-01-28T04:45:57;100651.63;;;2.79;100.00
24858;BME280;12935;50.782;6.074;2023-01-28T04:48:23;100656.03;;;2.75;100.00
24858;BME280;12935;50.782;6.074;2023-01-28T04:50:49;100652.00;;;2.55;100.00
24858;BME280;12935;50.782;6.074;2023-01-28T04:53:14;100653.50;;;2.39;100.00
24858;BME280;12935;50.782;6.074;2023-01-28T04:55:40;100653.56;;;2.17;100.00
24858;BME280;12935;50.782;6.074;2023-01-28T04:58:07;100661.34;;;2.18;100.00
24858;BME280;12935;50.782;6.074;2023-01-28T05:00:32;100661.56;;;2.30;100.00
24858;BME280;12935;50.782;6.074;2023-01-28T05:02:58;100655.78;;;2.45;100.00
24858;BME280;12935;50.782;6.074;2023-01-28T05:05:24;100659.28;;;2.15;100.00
24858;BME280;12935;50.782;6.074;2023-01-28T05:07:53;100659.00;;;2.25;100.00
24858;BME280;12935;50.782;6.074;2023-01-28T05:10:19;100652.78;;;2.16;100.00
24858;BME280;12935;50.782;6.074;2023-01-28T05:12:46;100653.31;;;2.27;100.00
24858;BME280;12935;50.782;6.074;2023-01-28T05:15:13;100655.59;;;2.42;100.00
24858;BME280;12935;50.782;6.074;2023-01-28T05:17:39;100657.69;;;2.54;100.00
24858;BME280;12935;50.782;6.074;2023-01-28T05:20:05;100662.84;;;2.64;100.00
24858;BME280;12935;50.782;6.074;2023-01-28T05:22:31;100654.44;;;2.65;100.00
24858;BME280;12935;50.782;6.074;2023-01-28T05:25:00;100657.78;;;2.71;100.00
24858;BME280;12935;50.782;6.074;2023-01-28T05:27:29;100662.59;;;2.43;100.00
24858;BME280;12935;50.782;6.074;2023-01-28T05:29:54;100662.06;;;2.01;100.00
24858;BME280;12935;50.782;6.074;2023-01-28T05:32:20;100656.28;;;1.94;100.00
24858;BME280;12935;50.782;6.074;2023-01-28T05:34:45;100658.06;;;1.76;100.00
24858;BME280;12935;50.782;6.074;2023-01-28T05:37:11;100650.16;;;1.58;100.00
24858;BME280;12935;50.782;6.074;2023-01-28T05:39:37;100650.28;;;1.53;100.00
24858;BME280;12935;50.782;6.074;2023-01-28T05:42:06;100658.28;;;1.44;100.00
24858;BME280;12935;50.782;6.074;2023-01-28T05:44:31;100660.91;;;1.35;100.00
24858;BME280;12935;50.782;6.074;2023-01-28T05:46:57;100659.50;;;1.38;100.00
24858;BME280;12935;50.782;6.074;2023-01-28T05:49:26;100660.94;;;1.22;100.00
24858;BME280;12935;50.782;6.074;2023-01-28T05:51:51;100657.25;;;1.18;100.00
24858;BME280;12935;50.782;6.074;2023-01-28T05:54:17;100656.84;;;1.24;100.00
24858;BME280;12935;50.782;6.074;2023-01-28T05:56:43;100672.56;;;1.31;100.00
24858;BME280;12935;50.782;6.074;2023-01-28T05:59:10;100677.97;;;1.31;100.00
24858;BME280;12935;50.782;6.074;2023-01-28T06:01:35;100676.81;;;1.23;100.00
24858;BME280;12935;50.782;6.074;2023-01-28T06:04:01;100685.25;;;1.30;100.00
24858;BME280;12935;50.782;6.074;2023-01-28T06:06:26;100681.63;;;1.49;100.00
24858;BME280;12935;50.782;6.074;2023-01-28T06:08:52;100687.34;;;1.33;100.00
24858;BME280;12935;50.782;6.074;2023-01-28T06:11:18;100687.53;;;1.37;100.00
24858;BME280;12935;50.782;6.074;2023-01-28T06:13:43;100680.31;;;1.10;100.00
24858;BME280;12935;50.782;6.074;2023-01-28T06:16:09;100678.09;;;1.12;100.00
24858;BME280;12935;50.782;6.074;2023-01-28T06:18:34;100690.25;;;1.23;100.00
24858;BME280;12935;50.782;6.074;2023-01-28T06:21:00;100682.84;;;1.29;100.00
24858;BME280;12935;50.782;6.074;2023-01-28T06:23:26;100692.66;;;1.11;100.00
24858;BME280;12935;50.782;6.074;2023-01-28T06:25:55;100700.72;;;1.11;100.00
24858;BME280;12935;50.782;6.074;2023-01-28T06:28:22;100699.25;;;1.05;100.00
24858;BME280;12935;50.782;6.074;2023-01-28T06:30:49;100698.53;;;1.13;100.00
24858;BME280;12935;50.782;6.074;2023-01-28T06:33:17;100694.16;;;1.17;100.00
24858;BME280;12935;50.782;6.074;2023-01-28T06:35:42;100694.84;;;1.23;100.00
24858;BME280;12935;50.782;6.074;2023-01-28T06:38:10;100695.22;;;1.30;100.00
24858;BME280;12935;50.782;6.074;2023-01-28T06:40:36;100683.94;;;1.42;100.00
24858;BME280;12935;50.782;6.074;2023-01-28T06:43:02;100691.34;;;1.58;100.00
24858;BME280;12935;50.782;6.074;2023-01-28T06:45:28;100690.25;;;1.23;100.00
24858;BME280;12935;50.782;6.074;2023-01-28T06:47:53;100694.84;;;1.23;100.00
24858;BME280;12935;50.782;6.074;2023-01-28T06:50:19;100699.31;;;1.41;100.00
24858;BME280;12935;50.782;6.074;2023-01-28T06:52:45;100706.00;;;1.30;100.00
24858;BME280;12935;50.782;6.074;2023-01-28T06:55:10;100705.13;;;1.21;100.00
24858;BME280;12935;50.782;6.074;2023-01-28T06:57:37;100708.19;;;1.42;100.00
24858;BME280;12935;50.782;6.074;2023-01-28T07:00:05;100698.97;;;1.56;100.00
24858;BME280;12935;50.782;6.074;2023-01-28T07:02:31;100700.56;;;1.57;100.00
24858;BME280;12935;50.782;6.074;2023-01-28T07:04:57;100698.66;;;1.80;100.00
24858;BME280;12935;50.782;6.074;2023-01-28T07:07:22;100705.91;;;1.93;100.00
24858;BME280;12935;50.782;6.074;2023-01-28T07:09:48;100693.63;;;1.65;100.00
24858;BME280;12935;50.782;6.074;2023-01-28T07:12:13;100703.25;;;1.44;100.00
24858;BME280;12935;50.782;6.074;2023-01-28T07:14:39;100693.81;;;1.32;100.00
24858;BME280;12935;50.782;6.074;2023-01-28T07:17:05;100700.41;;;1.26;100.00
24858;BME280;12935;50.782;6.074;2023-01-28T07:19:30;100700.75;;;1.47;100.00
24858;BME280;12935;50.782;6.074;2023-01-28T07:21:56;100697.47;;;1.50;100.00
24858;BME280;12935;50.782;6.074;2023-01-28T07:24:25;100708.91;;;1.20;100.00
24858;BME280;12935;50.782;6.074;2023-01-28T07:26:51;100710.06;;;1.27;100.00
24858;BME280;12935;50.782;6.074;2023-01-28T07:29:16;100712.72;;;1.55;100.00
24858;BME280;12935;50.782;6.074;2023-01-28T07:31:42;100706.25;;;1.78;100.00
24858;BME280;12935;50.782;6.074;2023-01-28T07:34:08;100707.94;;;1.52;100.00
24858;BME280;12935;50.782;6.074;2023-01-28T07:36:34;100709.09;;;1.23;100.00
24858;BME280;12935;50.782;6.074;2023-01-28T07:38:59;100707.50;;;1.22;100.00
24858;BME280;12935;50.782;6.074;2023-01-28T07:41:25;100711.66;;;1.28;100.00
24858;BME280;12935;50.782;6.074;2023-01-28T07:43:52;100719.06;;;1.23;100.00
24858;BME280;12935;50.782;6.074;2023-01-28T07:46:18;100713.59;;;1.14;100.00
24858;BME280;12935;50.782;6.074;2023-01-28T07:48:43;100717.00;;;1.06;100.00
24858;BME280;12935;50.782;6.074;2023-01-28T07:51:10;100711.47;;;1.11;100.00
24858;BME280;12935;50.782;6.074;2023-01-28T07:53:36;100717.84;;;1.29;100.00
24858;BME280;12935;50.782;6.074;2023-01-28T07:56:02;100723.56;;;1.14;100.00
24858;BME280;12935;50.782;6.074;2023-01-28T07:58:29;100727.84;;;1.01;100.00
24858;BME280;12935;50.782;6.074;2023-01-28T08:00:58;100724.78;;;0.94;100.00
24858;BME280;12935;50.782;6.074;2023-01-28T08:03:24;100720.97;;;0.95;100.00
24858;BME280;12935;50.782;6.074;2023-01-28T08:05:52;100722.06;;;1.21;100.00
24858;BME280;12935;50.782;6.074;2023-01-28T08:08:18;100719.91;;;1.46;100.00
24858;BME280;12935;50.782;6.074;2023-01-28T08:10:44;100728.25;;;1.22;100.00
24858;BME280;12935;50.782;6.074;2023-01-28T08:13:11;100728.44;;;1.39;100.00
24858;BME280;12935;50.782;6.074;2023-01-28T08:15:37;100731.75;;;1.58;100.00
24858;BME280;12935;50.782;6.074;2023-01-28T08:18:05;100732.94;;;1.66;100.00
24858;BME280;12935;50.782;6.074;2023-01-28T08:20:31;100739.56;;;1.46;100.00
24858;BME280;12935;50.782;6.074;2023-01-28T08:23:07;100744.25;;;1.54;100.00
24858;BME280;12935;50.782;6.074;2023-01-28T08:25:33;100753.47;;;1.39;100.00
24858;BME280;12935;50.782;6.074;2023-01-28T08:27:59;100764.84;;;1.23;100.00
24858;BME280;12935;50.782;6.074;2023-01-28T08:30:24;100769.00;;;1.15;100.00
24858;BME280;12935;50.782;6.074;2023-01-28T08:32:50;100763.00;;;1.46;100.00
24858;BME280;12935;50.782;6.074;2023-01-28T08:35:16;100764.81;;;1.36;100.00
24858;BME280;12935;50.782;6.074;2023-01-28T08:37:41;100762.16;;;1.09;100.00
24858;BME280;12935;50.782;6.074;2023-01-28T08:40:07;100770.09;;;0.87;100.00
24858;BME280;12935;50.782;6.074;2023-01-28T08:42:33;100776.72;;;0.94;100.00
24858;BME280;12935;50.782;6.074;2023-01-28T08:44:59;100771.31;;;0.94;100.00
24858;BME280;12935;50.782;6.074;2023-01-28T08:47:25;100770.19;;;0.82;100.00
24858;BME280;12935;50.782;6.074;2023-01-28T08:49:50;100769.91;;;0.83;100.00
24858;BME280;12935;50.782;6.074;2023-01-28T08:52:16;100766.31;;;0.88;100.00
24858;BME280;12935;50.782;6.074;2023-01-28T08:54:42;100772.88;;;0.95;100.00
24858;BME280;12935;50.782;6.074;2023-01-28T08:57:08;100769.44;;;1.22;100.00
24858;BME280;12935;50.782;6.074;2023-01-28T08:59:33;100778.19;;;1.42;100.00
24858;BME280;12935;50.782;6.074;2023-01-28T09:01:59;100782.59;;;1.37;100.00
24858;BME280;12935;50.782;6.074;2023-01-28T09:04:25;100779.59;;;1.25;100.00
24858;BME280;12935;50.782;6.074;2023-01-28T09:06:53;100787.84;;;1.01;100.00
24858;BME280;12935;50.782;6.074;2023-01-28T09:09:20;100789.75;;;0.87;100.00
24858;BME280;12935;50.782;6.074;2023-01-28T09:11:45;100794.53;;;0.90;100.00
24858;BME280;12935;50.782;6.074;2023-01-28T09:14:11;100804.88;;;0.83;100.00
24858;BME280;12935;50.782;6.074;2023-01-28T09:16:36;100813.16;;;1.00;100.00
24858;BME280;12935;50.782;6.074;2023-01-28T09:19:02;100819.91;;;0.84;100.00
24858;BME280;12935;50.782;6.074;2023-01-28T09:21:28;100821.72;;;0.75;100.00
24858;BME280;12935;50.782;6.074;2023-01-28T09:23:54;100820.78;;;0.80;100.00
24858;BME280;12935;50.782;6.074;2023-01-28T09:26:21;100831.28;;;0.95;100.00
24858;BME280;12935;50.782;6.074;2023-01-28T09:28:46;100822.75;;;1.07;100.00
24858;BME280;12935;50.782;6.074;2023-01-28T09:31:12;100834.13;;;1.03;100.00
24858;BME280;12935;50.782;6.074;2023-01-28T09:33:39;100826.03;;;0.90;100.00
24858;BME280;12935;50.782;6.074;2023-01-28T09:36:06;100833.72;;;1.10;100.00
24858;BME280;12935;50.782;6.074;2023-01-28T09:38:32;100840.59;;;1.02;100.00
24858;BME280;12935;50.782;6.074;2023-01-28T09:41:08;100835.94;;;1.08;100.00
24858;BME280;12935;50.782;6.074;2023-01-28T09:43:58;100840.94;;;0.82;100.00
24858;BME280;12935;50.782;6.074;2023-01-28T09:46:31;100837.59;;;0.90;100.00
24858;BME280;12935;50.782;6.074;2023-01-28T09:48:59;100840.13;;;0.82;100.00
24858;BME280;12935;50.782;6.074;2023-01-28T09:51:39;100843.91;;;0.81;100.00
24858;BME280;12935;50.782;6.074;2023-01-28T09:56:54;100849.16;;;0.91;100.00
24858;BME280;12935;50.782;6.074;2023-01-28T09:59:22;100842.56;;;0.97;100.00
24858;BME280;12935;50.782;6.074;2023-01-28T10:02:30;100841.72;;;1.42;100.00
24858;BME280;12935;50.782;6.074;2023-01-28T10:05:17;100836.41;;;1.65;100.00
24858;BME280;12935;50.782;6.074;2023-01-28T10:10:39;100852.00;;;1.54;100.00
24858;BME280;12935;50.782;6.074;2023-01-28T10:15:53;100847.59;;;1.58;100.00
24858;BME280;12935;50.782;6.074;2023-01-28T10:18:34;100846.91;;;1.53;100.00
24858;BME280;12935;50.782;6.074;2023-01-28T10:21:13;100848.56;;;1.76;100.00
24858;BME280;12935;50.782;6.074;2023-01-28T10:24:10;100853.44;;;2.01;100.00
24858;BME280;12935;50.782;6.074;2023-01-28T10:26:40;100857.09;;;1.56;100.00
24858;BME280;12935;50.782;6.074;2023-01-28T10:29:14;100851.59;;;1.47;100.00
24858;BME280;12935;50.782;6.074;2023-01-28T10:31:54;100846.50;;;1.59;100.00
24858;BME280;12935;50.782;6.074;2023-01-28T10:34:22;100850.91;;;1.42;100.00
24858;BME280;12935;50.782;6.074;2023-01-28T10:36:48;100858.56;;;1.48;100.00
24858;BME280;12935;50.782;6.074;2023-01-28T10:39:16;100853.59;;;1.55;100.00
24858;BME280;12935;50.782;6.074;2023-01-28T10:41:43;100852.09;;;1.22;100.00
24858;BME280;12935;50.782;6.074;2023-01-28T10:44:15;100845.41;;;1.33;100.00
24858;BME280;12935;50.782;6.074;2023-01-28T10:46:44;100841.03;;;1.23;100.00
24858;BME280;12935;50.782;6.074;2023-01-28T10:49:25;100848.44;;;0.99;100.00
24858;BME280;12935;50.782;6.074;2023-01-28T10:51:55;100845.34;;;0.78;100.00
24858;BME280;12935;50.782;6.074;2023-01-28T10:54:23;100849.00;;;0.82;100.00
24858;BME280;12935;50.782;6.074;2023-01-28T10:57:00;100838.47;;;0.99;100.00
24858;BME280;12935;50.782;6.074;2023-01-28T10:59:28;100838.72;;;1.17;100.00
24858;BME280;12935;50.782;6.074;2023-01-28T11:04:43;100855.19;;;1.56;100.00
24858;BME280;12935;50.782;6.074;2023-01-28T11:07:17;100855.38;;;1.19;100.00
24858;BME280;12935;50.782;6.074;2023-01-28T11:09:46;100847.34;;;1.00;100.00
24858;BME280;12935;50.782;6.074;2023-01-28T11:12:20;100853.22;;;0.88;100.00
24858;BME280;12935;50.782;6.074;2023-01-28T11:14:54;100856.41;;;0.90;100.00
24858;BME280;12935;50.782;6.074;2023-01-28T11:17:22;100850.63;;;0.97;100.00
24858;BME280;12935;50.782;6.074;2023-01-28T11:19:51;100846.91;;;0.79;100.00
24858;BME280;12935;50.782;6.074;2023-01-28T11:22:38;100854.06;;;0.70;100.00
24858;BME280;12935;50.782;6.074;2023-01-28T11:27:52;100843.00;;;1.04;100.00
24858;BME280;12935;50.782;6.074;2023-01-28T11:30:39;100845.88;;;1.08;100.00
24858;BME280;12935;50.782;6.074;2023-01-28T11:33:20;100841.53;;;1.25;100.00
24858;BME280;12935;50.782;6.074;2023-01-28T11:35:57;100841.81;;;1.37;100.00
24858;BME280;12935;50.782;6.074;2023-01-28T11:38:28;100848.22;;;1.42;100.00
24858;BME280;12935;50.782;6.074;2023-01-28T11:40:56;100855.16;;;1.15;100.00
24858;BME280;12935;50.782;6.074;2023-01-28T11:43:27;100850.75;;;0.92;100.00
24858;BME280;12935;50.782;6.074;2023-01-28T11:51:32;100845.69;;;1.04;100.00
24858;BME280;12935;50.782;6.074;2023-01-28T11:54:54;100848.00;;;1.52;100.00
24858;BME280;12935;50.782;6.074;2023-01-28T12:00:34;100836.53;;;2.09;100.00
24858;BME280;12935;50.782;6.074;2023-01-28T12:03:33;100835.81;;;1.82;100.00
24858;BME280;12935;50.782;6.074;2023-01-28T12:09:09;100838.72;;;1.44;100.00
24858;BME280;12935;50.782;6.074;2023-01-28T12:15:15;100833.44;;;1.66;100.00
24858;BME280;12935;50.782;6.074;2023-01-28T12:26:24;100819.94;;;1.80;100.00
24858;BME280;12935;50.782;6.074;2023-01-28T12:29:04;100822.56;;;1.71;100.00
24858;BME280;12935;50.782;6.074;2023-01-28T12:46:15;100805.06;;;2.19;100.00
24858;BME280;12935;50.782;6.074;2023-01-28T12:48:49;100809.63;;;1.96;100.00
24858;BME280;12935;50.782;6.074;2023-01-28T12:51:24;100805.78;;;2.10;100.00
24858;BME280;12935;50.782;6.074;2023-01-28T12:54:23;100789.53;;;2.24;100.00
24858;BME280;12935;50.782;6.074;2023-01-28T12:56:53;100796.53;;;1.89;100.00
24858;BME280;12935;50.782;6.074;2023-01-28T13:02:12;100786.78;;;2.16;100.00
24858;BME280;12935;50.782;6.074;2023-01-28T13:04:56;100791.94;;;2.48;100.00
24858;BME280;12935;50.782;6.074;2023-01-28T13:07:33;100783.31;;;2.68;100.00
24858;BME280;12935;50.782;6.074;2023-01-28T13:12:30;100765.06;;;3.05;98.10
24858;BME280;12935;50.782;6.074;2023-01-28T13:14:57;100759.25;;;3.20;97.24
24858;BME280;12935;50.782;6.074;2023-01-28T13:17:29;100763.47;;;3.43;95.11
24858;BME280;12935;50.782;6.074;2023-01-28T13:19:56;100773.75;;;3.33;94.38
24858;BME280;12935;50.782;6.074;2023-01-28T13:22:32;100756.75;;;3.32;95.76
24858;BME280;12935;50.782;6.074;2023-01-28T13:25:18;100746.44;;;3.51;95.21
24858;BME280;12935;50.782;6.074;2023-01-28T13:27:55;100734.41;;;3.83;93.15
24858;BME280;12935;50.782;6.074;2023-01-28T13:30:24;100745.19;;;4.09;90.29
24858;BME280;12935;50.782;6.074;2023-01-28T13:33:26;100731.03;;;4.30;88.53
24858;BME280;12935;50.782;6.074;2023-01-28T13:35:53;100716.09;;;4.23;87.62
24858;BME280;12935;50.782;6.074;2023-01-28T13:38:20;100702.75;;;4.01;86.38
24858;BME280;12935;50.782;6.074;2023-01-28T13:41:00;100712.47;;;3.85;86.65
24858;BME280;12935;50.782;6.074;2023-01-28T13:46:00;100740.13;;;3.56;88.26
24858;BME280;12935;50.782;6.074;2023-01-28T13:50:57;100735.97;;;3.50;88.76
24858;BME280;12935;50.782;6.074;2023-01-28T13:55:58;100741.38;;;3.50;87.95
24858;BME280;12935;50.782;6.074;2023-01-28T14:19:35;100772.88;;;2.22;94.05
24858;BME280;12935;50.782;6.074;2023-01-28T14:22:07;100791.94;;;2.48;95.45
24858;BME280;12935;50.782;6.074;2023-01-28T14:24:33;100802.06;;;2.20;94.43
24858;BME280;12935;50.782;6.074;2023-01-28T14:32:11;100786.31;;;2.36;96.43
24858;BME280;12935;50.782;6.074;2023-01-28T14:34:39;100782.94;;;1.58;97.75
24858;BME280;12935;50.782;6.074;2023-01-28T14:37:10;100795.94;;;1.29;100.00
24858;BME280;12935;50.782;6.074;2023-01-28T14:39:42;100787.34;;;1.13;100.00
24858;BME280;12935;50.782;6.074;2023-01-28T14:42:34;100789.88;;;1.23;100.00
24858;BME280;12935;50.782;6.074;2023-01-28T15:01:46;100749.69;;;2.74;96.56
24858;BME280;12935;50.782;6.074;2023-01-28T15:04:30;100751.25;;;2.14;97.20
24858;BME280;12935;50.782;6.074;2023-01-28T15:07:00;100761.09;;;1.96;97.80
24858;BME280;12935;50.782;6.074;2023-01-28T15:09:26;100768.34;;;2.31;99.26